Jump to content

  •  

AMERICAN AIRLINES FLIGHT AA2570 FLOWN ON 12-04-2017 BY CAPTAIN JIM BOERMAN

Pilot StatsCaptain Jim Boerman (LDP136) • 4,686.4 total hours • 1,423 total flights [View Logbook]
FLIGHT DETAILS
StatusReceived and approved on 2017-12-04 at 16:12:57
Origin AirportMiami Intl (KMIA) • Miami, Florida, United States (8 feet MSL)
Filed Flight PlanFLIGHT PLANNER OFFLINE
Destination AirportDep. L. E. Magalhaes Intl (SBSV) • Salvador, Brazil (64 feet MSL)
Alternate AirportSen Nilo Coelho (SBPL) • Petrolina, Brazil (1,263 feet MSL)
AirlineAmerican Airlines
AircraftBoeing 777-200LR (77L / B777-200LR)
FS Aircraft UsedPMDG 777-223LR American Airlines (Fictional)
Cruising AltitudeFL330
Distance Flown3,378 nautical miles
Passengers Onboard137 passengers (45.51% full)
DEPARTURE DETAILS
Time Out08:40:22
Taxi Data528,436 lbs total with 122,112 lbs of fuel onboard
Takeoff Data08:55:31 (15 minutes after leaving gate/ramp) • 526,507 lbs total • 9° pitch at 170 knots
Departure METARKMIA 041253Z 00000KT 10SM FEW035 FEW250 23/18 A3014 RMK AO2 SLP204 T02280183 $
ARRIVAL DETAILS
Landing Data19:07:22 • 427,652 lbs total • 3° pitch doing 130 knots at a rate of -201.46 feet/minute with 20,230 lbs of fuel onboard
Time In19:19:24 (12 minutes after landing)
Ramp Weight426,554 lbs total
Total Fuel Used101,882 lbs
Total Block Time07:38:39 (7.6 hours) while 27 minutes were spent on the ground
Arrival METARSBSV 042100Z 07012KT CAVOK 26/24 Q1010
MISCELLANEOUS DETAILS
LiveDISPATCH Version4.8.3.1
FS Version
FSUIPC Version5.12
OS VersionWindows 7 32-bit
Screen Resolution1920 x 1080
Pilot's CommentsNo Comments Reported
FLIGHT MAP